sensor_id;sensor_type;location;lat;lon;timestamp;temperature;humidity
35796;DHT22;21916;52.428;13.302;2022-11-30T00:00:57;5.50;99.90
35796;DHT22;21916;52.428;13.302;2022-11-30T00:03:23;5.50;99.90
35796;DHT22;21916;52.428;13.302;2022-11-30T00:05:50;5.50;99.90
35796;DHT22;21916;52.428;13.302;2022-11-30T00:08:17;5.50;99.90
35796;DHT22;21916;52.428;13.302;2022-11-30T00:10:43;5.50;99.90
35796;DHT22;21916;52.428;13.302;2022-11-30T00:13:09;5.60;99.90
35796;DHT22;21916;52.428;13.302;2022-11-30T00:15:36;5.60;99.90
35796;DHT22;21916;52.428;13.302;2022-11-30T00:18:05;5.60;99.90
35796;DHT22;21916;52.428;13.302;2022-11-30T00:20:31;5.70;99.90
35796;DHT22;21916;52.428;13.302;2022-11-30T00:22:57;5.70;99.90
35796;DHT22;21916;52.428;13.302;2022-11-30T00:25:24;5.60;99.90
35796;DHT22;21916;52.428;13.302;2022-11-30T00:27:50;5.60;99.90
35796;DHT22;21916;52.428;13.302;2022-11-30T00:30:16;5.60;99.90
35796;DHT22;21916;52.428;13.302;2022-11-30T00:32:43;5.50;99.90
35796;DHT22;21916;52.428;13.302;2022-11-30T00:35:09;5.50;99.90
35796;DHT22;21916;52.428;13.302;2022-11-30T00:37:35;5.50;99.90
35796;DHT22;21916;52.428;13.302;2022-11-30T00:40:01;5.50;99.90
35796;DHT22;21916;52.428;13.302;2022-11-30T00:42:27;5.40;99.90
35796;DHT22;21916;52.428;13.302;2022-11-30T00:44:53;5.40;99.90
35796;DHT22;21916;52.428;13.302;2022-11-30T00:47:18;5.50;99.90
35796;DHT22;21916;52.428;13.302;2022-11-30T00:49:44;5.50;99.90
35796;DHT22;21916;52.428;13.302;2022-11-30T00:52:10;5.50;99.90
35796;DHT22;21916;52.428;13.302;2022-11-30T00:54:36;5.50;99.90
35796;DHT22;21916;52.428;13.302;2022-11-30T00:57:01;5.50;99.90
35796;DHT22;21916;52.428;13.302;2022-11-30T00:59:28;5.40;99.90
35796;DHT22;21916;52.428;13.302;2022-11-30T01:01:54;5.50;99.90
35796;DHT22;21916;52.428;13.302;2022-11-30T01:04:20;5.40;99.90
35796;DHT22;21916;52.428;13.302;2022-11-30T01:06:47;5.40;99.90
35796;DHT22;21916;52.428;13.302;2022-11-30T01:09:13;5.30;99.90
35796;DHT22;21916;52.428;13.302;2022-11-30T01:11:39;5.40;99.90
35796;DHT22;21916;52.428;13.302;2022-11-30T01:14:05;5.50;99.90
35796;DHT22;21916;52.428;13.302;2022-11-30T01:16:32;5.40;99.90
35796;DHT22;21916;52.428;13.302;2022-11-30T01:18:58;5.40;99.90
35796;DHT22;21916;52.428;13.302;2022-11-30T01:21:26;5.40;99.90
35796;DHT22;21916;52.428;13.302;2022-11-30T01:23:53;5.30;99.90
35796;DHT22;21916;52.428;13.302;2022-11-30T01:26:19;5.40;99.90
35796;DHT22;21916;52.428;13.302;2022-11-30T01:28:49;5.50;99.90
35796;DHT22;21916;52.428;13.302;2022-11-30T01:31:15;5.40;99.90
35796;DHT22;21916;52.428;13.302;2022-11-30T01:33:41;5.40;99.90
35796;DHT22;21916;52.428;13.302;2022-11-30T01:36:15;5.50;99.90
35796;DHT22;21916;52.428;13.302;2022-11-30T01:38:44;5.50;99.90
35796;DHT22;21916;52.428;13.302;2022-11-30T01:41:14;5.50;99.90
35796;DHT22;21916;52.428;13.302;2022-11-30T01:43:44;5.50;99.90
35796;DHT22;21916;52.428;13.302;2022-11-30T01:46:25;5.50;99.90
35796;DHT22;21916;52.428;13.302;2022-11-30T01:49:05;5.50;99.90
35796;DHT22;21916;52.428;13.302;2022-11-30T01:51:41;5.40;99.90
35796;DHT22;21916;52.428;13.302;2022-11-30T01:54:12;5.40;99.90
35796;DHT22;21916;52.428;13.302;2022-11-30T01:56:43;5.40;99.90
35796;DHT22;21916;52.428;13.302;2022-11-30T01:59:11;5.40;99.90
35796;DHT22;21916;52.428;13.302;2022-11-30T02:01:37;5.40;99.90
35796;DHT22;21916;52.428;13.302;2022-11-30T02:04:30;5.30;99.90
35796;DHT22;21916;52.428;13.302;2022-11-30T02:06:57;5.30;99.90
35796;DHT22;21916;52.428;13.302;2022-11-30T02:09:25;5.30;99.90
35796;DHT22;21916;52.428;13.302;2022-11-30T02:11:51;5.30;99.90
35796;DHT22;21916;52.428;13.302;2022-11-30T02:14:41;5.40;99.90
35796;DHT22;21916;52.428;13.302;2022-11-30T02:20:28;5.30;99.90
35796;DHT22;21916;52.428;13.302;2022-11-30T02:31:15;5.20;99.90
35796;DHT22;21916;52.428;13.302;2022-11-30T02:33:44;5.30;99.90
35796;DHT22;21916;52.428;13.302;2022-11-30T02:36:11;5.20;99.90
35796;DHT22;21916;52.428;13.302;2022-11-30T02:38:37;5.30;99.90
35796;DHT22;21916;52.428;13.302;2022-11-30T02:41:03;5.30;99.90
35796;DHT22;21916;52.428;13.302;2022-11-30T02:43:29;5.20;99.90
35796;DHT22;21916;52.428;13.302;2022-11-30T02:46:38;5.10;99.90
35796;DHT22;21916;52.428;13.302;2022-11-30T02:49:08;5.20;99.90
35796;DHT22;21916;52.428;13.302;2022-11-30T02:51:37;5.20;99.90
35796;DHT22;21916;52.428;13.302;2022-11-30T02:54:04;5.10;99.90
35796;DHT22;21916;52.428;13.302;2022-11-30T02:56:30;5.10;99.90
35796;DHT22;21916;52.428;13.302;2022-11-30T02:58:59;5.00;99.90
35796;DHT22;21916;52.428;13.302;2022-11-30T03:01:59;5.10;99.90
35796;DHT22;21916;52.428;13.302;2022-11-30T03:04:35;5.10;99.90
35796;DHT22;21916;52.428;13.302;2022-11-30T03:07:01;5.10;99.90
35796;DHT22;21916;52.428;13.302;2022-11-30T03:09:26;5.10;99.90
35796;DHT22;21916;52.428;13.302;2022-11-30T03:11:52;5.10;99.90
35796;DHT22;21916;52.428;13.302;2022-11-30T03:14:18;5.10;99.90
35796;DHT22;21916;52.428;13.302;2022-11-30T03:16:44;5.10;99.90
35796;DHT22;21916;52.428;13.302;2022-11-30T03:19:11;5.00;99.90
35796;DHT22;21916;52.428;13.302;2022-11-30T03:21:41;5.10;99.90
35796;DHT22;21916;52.428;13.302;2022-11-30T03:24:07;5.20;99.90
35796;DHT22;21916;52.428;13.302;2022-11-30T03:26:33;5.10;99.90
35796;DHT22;21916;52.428;13.302;2022-11-30T03:28:59;5.20;99.90
35796;DHT22;21916;52.428;13.302;2022-11-30T03:31:24;5.10;99.90
35796;DHT22;21916;52.428;13.302;2022-11-30T03:33:51;5.10;99.90
35796;DHT22;21916;52.428;13.302;2022-11-30T03:36:17;5.10;99.90
35796;DHT22;21916;52.428;13.302;2022-11-30T03:38:43;5.10;99.90
35796;DHT22;21916;52.428;13.302;2022-11-30T03:41:15;5.10;99.90
35796;DHT22;21916;52.428;13.302;2022-11-30T03:43:42;5.00;99.90
35796;DHT22;21916;52.428;13.302;2022-11-30T03:46:08;5.10;99.90
35796;DHT22;21916;52.428;13.302;2022-11-30T03:48:35;5.10;99.90
35796;DHT22;21916;52.428;13.302;2022-11-30T03:51:02;5.10;99.90
35796;DHT22;21916;52.428;13.302;2022-11-30T03:53:29;5.20;99.90
35796;DHT22;21916;52.428;13.302;2022-11-30T03:55:59;5.30;99.90
35796;DHT22;21916;52.428;13.302;2022-11-30T03:58:27;5.20;99.90
35796;DHT22;21916;52.428;13.302;2022-11-30T04:01:13;5.20;99.90
35796;DHT22;21916;52.428;13.302;2022-11-30T04:03:40;5.10;99.90
35796;DHT22;21916;52.428;13.302;2022-11-30T04:06:07;5.10;99.90
35796;DHT22;21916;52.428;13.302;2022-11-30T04:08:34;5.10;99.90
35796;DHT22;21916;52.428;13.302;2022-11-30T04:11:01;5.00;99.90
35796;DHT22;21916;52.428;13.302;2022-11-30T04:13:30;5.10;99.90
35796;DHT22;21916;52.428;13.302;2022-11-30T04:15:57;5.10;99.90
35796;DHT22;21916;52.428;13.302;2022-11-30T04:18:25;5.00;99.90
35796;DHT22;21916;52.428;13.302;2022-11-30T04:20:53;4.90;99.90
35796;DHT22;21916;52.428;13.302;2022-11-30T04:23:20;5.00;99.90
35796;DHT22;21916;52.428;13.302;2022-11-30T04:25:48;5.10;99.90
35796;DHT22;21916;52.428;13.302;2022-11-30T04:28:15;5.00;99.90
35796;DHT22;21916;52.428;13.302;2022-11-30T04:30:42;4.90;99.90
35796;DHT22;21916;52.428;13.302;2022-11-30T04:33:11;4.90;99.90
35796;DHT22;21916;52.428;13.302;2022-11-30T04:35:44;5.00;99.90
35796;DHT22;21916;52.428;13.302;2022-11-30T04:38:12;5.00;99.90
35796;DHT22;21916;52.428;13.302;2022-11-30T04:40:39;5.00;99.90
35796;DHT22;21916;52.428;13.302;2022-11-30T04:43:05;4.90;99.90
35796;DHT22;21916;52.428;13.302;2022-11-30T04:45:31;5.00;99.90
35796;DHT22;21916;52.428;13.302;2022-11-30T04:47:57;4.90;99.90
35796;DHT22;21916;52.428;13.302;2022-11-30T04:50:23;4.90;99.90
35796;DHT22;21916;52.428;13.302;2022-11-30T04:52:51;4.80;99.90
35796;DHT22;21916;52.428;13.302;2022-11-30T04:55:16;4.90;99.90
35796;DHT22;21916;52.428;13.302;2022-11-30T04:57:45;5.00;99.90
35796;DHT22;21916;52.428;13.302;2022-11-30T05:00:12;5.00;99.90
35796;DHT22;21916;52.428;13.302;2022-11-30T05:02:38;4.80;99.90
35796;DHT22;21916;52.428;13.302;2022-11-30T05:05:05;4.80;99.90
35796;DHT22;21916;52.428;13.302;2022-11-30T05:07:32;4.80;99.90
35796;DHT22;21916;52.428;13.302;2022-11-30T05:09:58;4.80;99.90
35796;DHT22;21916;52.428;13.302;2022-11-30T05:12:24;4.80;99.90
35796;DHT22;21916;52.428;13.302;2022-11-30T05:14:50;4.80;99.90
35796;DHT22;21916;52.428;13.302;2022-11-30T05:17:16;4.80;99.90
35796;DHT22;21916;52.428;13.302;2022-11-30T05:19:42;4.90;99.90
35796;DHT22;21916;52.428;13.302;2022-11-30T05:22:08;4.80;99.90
35796;DHT22;21916;52.428;13.302;2022-11-30T05:24:34;4.80;99.90
35796;DHT22;21916;52.428;13.302;2022-11-30T05:27:00;4.80;99.90
35796;DHT22;21916;52.428;13.302;2022-11-30T05:29:26;4.90;99.90
35796;DHT22;21916;52.428;13.302;2022-11-30T05:31:51;4.90;99.90
35796;DHT22;21916;52.428;13.302;2022-11-30T05:34:17;4.90;99.90
35796;DHT22;21916;52.428;13.302;2022-11-30T05:36:43;4.80;99.90
35796;DHT22;21916;52.428;13.302;2022-11-30T05:39:09;4.80;99.90
35796;DHT22;21916;52.428;13.302;2022-11-30T05:41:35;4.70;99.90
35796;DHT22;21916;52.428;13.302;2022-11-30T05:44:01;4.70;99.90
35796;DHT22;21916;52.428;13.302;2022-11-30T05:46:26;4.80;99.90
35796;DHT22;21916;52.428;13.302;2022-11-30T05:48:52;4.90;99.90
35796;DHT22;21916;52.428;13.302;2022-11-30T05:51:20;4.90;99.90
35796;DHT22;21916;52.428;13.302;2022-11-30T05:53:46;4.90;99.90
35796;DHT22;21916;52.428;13.302;2022-11-30T05:56:18;4.90;99.90
35796;DHT22;21916;52.428;13.302;2022-11-30T05:58:44;4.90;99.90
35796;DHT22;21916;52.428;13.302;2022-11-30T06:01:37;4.90;99.90
35796;DHT22;21916;52.428;13.302;2022-11-30T06:04:06;4.90;99.90
35796;DHT22;21916;52.428;13.302;2022-11-30T06:06:32;4.80;99.90
35796;DHT22;21916;52.428;13.302;2022-11-30T06:08:58;4.80;99.90
35796;DHT22;21916;52.428;13.302;2022-11-30T06:11:23;4.80;99.90
35796;DHT22;21916;52.428;13.302;2022-11-30T06:13:49;4.90;99.90
35796;DHT22;21916;52.428;13.302;2022-11-30T06:16:15;4.80;99.90
35796;DHT22;21916;52.428;13.302;2022-11-30T06:18:41;4.80;99.90
35796;DHT22;21916;52.428;13.302;2022-11-30T06:21:10;4.80;99.90
35796;DHT22;21916;52.428;13.302;2022-11-30T06:23:39;4.90;99.90
35796;DHT22;21916;52.428;13.302;2022-11-30T06:26:07;4.90;99.90
35796;DHT22;21916;52.428;13.302;2022-11-30T06:28:34;4.90;99.90
35796;DHT22;21916;52.428;13.302;2022-11-30T06:31:01;4.80;99.90
35796;DHT22;21916;52.428;13.302;2022-11-30T06:33:28;4.90;99.90
35796;DHT22;21916;52.428;13.302;2022-11-30T06:35:54;4.80;99.90
35796;DHT22;21916;52.428;13.302;2022-11-30T06:38:20;4.70;99.90
35796;DHT22;21916;52.428;13.302;2022-11-30T06:40:46;4.80;99.90
35796;DHT22;21916;52.428;13.302;2022-11-30T06:43:13;4.80;99.90
35796;DHT22;21916;52.428;13.302;2022-11-30T06:45:40;4.80;99.90
35796;DHT22;21916;52.428;13.302;2022-11-30T06:48:07;4.80;99.90
35796;DHT22;21916;52.428;13.302;2022-11-30T06:50:33;4.90;99.90
35796;DHT22;21916;52.428;13.302;2022-11-30T06:52:59;4.80;99.90
35796;DHT22;21916;52.428;13.302;2022-11-30T06:55:25;4.80;99.90
35796;DHT22;21916;52.428;13.302;2022-11-30T06:57:51;4.80;99.90
35796;DHT22;21916;52.428;13.302;2022-11-30T07:00:17;4.90;99.90
35796;DHT22;21916;52.428;13.302;2022-11-30T07:02:43;4.80;99.90
35796;DHT22;21916;52.428;13.302;2022-11-30T07:05:09;4.80;99.90
35796;DHT22;21916;52.428;13.302;2022-11-30T07:07:36;4.80;99.90
35796;DHT22;21916;52.428;13.302;2022-11-30T07:10:01;4.80;99.90
35796;DHT22;21916;52.428;13.302;2022-11-30T07:12:27;4.70;99.90
35796;DHT22;21916;52.428;13.302;2022-11-30T07:14:53;4.90;99.90
35796;DHT22;21916;52.428;13.302;2022-11-30T07:17:22;4.90;99.90
35796;DHT22;21916;52.428;13.302;2022-11-30T07:19:48;4.70;99.90
35796;DHT22;21916;52.428;13.302;2022-11-30T07:22:14;4.80;99.90
35796;DHT22;21916;52.428;13.302;2022-11-30T07:24:39;4.70;99.90
35796;DHT22;21916;52.428;13.302;2022-11-30T07:27:24;4.80;99.90
35796;DHT22;21916;52.428;13.302;2022-11-30T07:29:50;4.80;99.90
35796;DHT22;21916;52.428;13.302;2022-11-30T07:32:17;4.90;99.90
35796;DHT22;21916;52.428;13.302;2022-11-30T07:34:43;4.80;99.90
35796;DHT22;21916;52.428;13.302;2022-11-30T07:37:10;4.90;99.90
35796;DHT22;21916;52.428;13.302;2022-11-30T07:39:36;4.90;99.90
35796;DHT22;21916;52.428;13.302;2022-11-30T07:42:02;4.90;99.90
35796;DHT22;21916;52.428;13.302;2022-11-30T07:44:28;4.90;99.90
35796;DHT22;21916;52.428;13.302;2022-11-30T07:46:54;4.90;99.90
35796;DHT22;21916;52.428;13.302;2022-11-30T07:49:20;4.90;99.90
35796;DHT22;21916;52.428;13.302;2022-11-30T07:51:46;4.90;99.90
35796;DHT22;21916;52.428;13.302;2022-11-30T07:54:12;4.90;99.90
35796;DHT22;21916;52.428;13.302;2022-11-30T07:56:37;4.90;99.90
35796;DHT22;21916;52.428;13.302;2022-11-30T07:59:03;5.00;99.90
35796;DHT22;21916;52.428;13.302;2022-11-30T08:01:31;5.10;99.90
35796;DHT22;21916;52.428;13.302;2022-11-30T08:03:58;5.10;99.90
35796;DHT22;21916;52.428;13.302;2022-11-30T08:06:29;5.20;99.90
35796;DHT22;21916;52.428;13.302;2022-11-30T08:09:00;5.20;99.90
35796;DHT22;21916;52.428;13.302;2022-11-30T08:11:31;5.20;99.90
35796;DHT22;21916;52.428;13.302;2022-11-30T08:13:58;5.30;99.90
35796;DHT22;21916;52.428;13.302;2022-11-30T08:16:27;5.30;99.90
35796;DHT22;21916;52.428;13.302;2022-11-30T08:18:55;5.20;99.90
35796;DHT22;21916;52.428;13.302;2022-11-30T08:21:21;5.10;99.90
35796;DHT22;21916;52.428;13.302;2022-11-30T08:23:52;5.10;99.90
35796;DHT22;21916;52.428;13.302;2022-11-30T08:26:24;5.20;99.90
35796;DHT22;21916;52.428;13.302;2022-11-30T08:28:53;5.30;99.90
35796;DHT22;21916;52.428;13.302;2022-11-30T08:31:27;5.30;99.90
35796;DHT22;21916;52.428;13.302;2022-11-30T08:33:56;5.30;99.90
35796;DHT22;21916;52.428;13.302;2022-11-30T08:36:23;5.30;99.90
35796;DHT22;21916;52.428;13.302;2022-11-30T08:38:49;5.40;99.90
35796;DHT22;21916;52.428;13.302;2022-11-30T08:41:18;5.30;99.90
35796;DHT22;21916;52.428;13.302;2022-11-30T08:43:45;5.40;99.90
35796;DHT22;21916;52.428;13.302;2022-11-30T08:46:13;5.50;99.90
35796;DHT22;21916;52.428;13.302;2022-11-30T08:48:39;5.60;99.90
35796;DHT22;21916;52.428;13.302;2022-11-30T08:51:08;5.50;99.90
35796;DHT22;21916;52.428;13.302;2022-11-30T08:53:34;5.50;99.90
35796;DHT22;21916;52.428;13.302;2022-11-30T08:56:03;5.50;99.90
35796;DHT22;21916;52.428;13.302;2022-11-30T08:58:31;5.50;99.90
35796;DHT22;21916;52.428;13.302;2022-11-30T09:01:16;5.50;99.90
35796;DHT22;21916;52.428;13.302;2022-11-30T09:03:44;5.60;99.90
35796;DHT22;21916;52.428;13.302;2022-11-30T09:09:03;5.70;99.90
35796;DHT22;21916;52.428;13.302;2022-11-30T09:11:32;5.70;99.90
35796;DHT22;21916;52.428;13.302;2022-11-30T09:14:00;5.70;99.90
35796;DHT22;21916;52.428;13.302;2022-11-30T09:16:28;5.80;99.90
35796;DHT22;21916;52.428;13.302;2022-11-30T09:18:54;5.90;99.90
35796;DHT22;21916;52.428;13.302;2022-11-30T09:21:22;6.00;99.90
35796;DHT22;21916;52.428;13.302;2022-11-30T09:23:49;6.10;99.90
35796;DHT22;21916;52.428;13.302;2022-11-30T09:26:18;6.10;99.90
35796;DHT22;21916;52.428;13.302;2022-11-30T09:28:45;6.20;99.90
35796;DHT22;21916;52.428;13.302;2022-11-30T09:31:21;6.20;99.90
35796;DHT22;21916;52.428;13.302;2022-11-30T09:33:48;6.30;99.90
35796;DHT22;21916;52.428;13.302;2022-11-30T09:36:17;6.30;99.90
35796;DHT22;21916;52.428;13.302;2022-11-30T09:38:43;6.30;99.90
35796;DHT22;21916;52.428;13.302;2022-11-30T09:44:21;6.40;99.90
35796;DHT22;21916;52.428;13.302;2022-11-30T09:49:48;6.40;99.90
35796;DHT22;21916;52.428;13.302;2022-11-30T09:52:23;6.30;99.90
35796;DHT22;21916;52.428;13.302;2022-11-30T09:54:55;6.50;99.90
35796;DHT22;21916;52.428;13.302;2022-11-30T09:57:45;6.60;99.90
35796;DHT22;21916;52.428;13.302;2022-11-30T10:00:16;6.60;99.90
35796;DHT22;21916;52.428;13.302;2022-11-30T10:02:42;6.60;99.90
35796;DHT22;21916;52.428;13.302;2022-11-30T10:05:18;6.70;99.90
35796;DHT22;21916;52.428;13.302;2022-11-30T10:07:55;6.80;99.90
35796;DHT22;21916;52.428;13.302;2022-11-30T10:13:10;7.00;99.90
35796;DHT22;21916;52.428;13.302;2022-11-30T10:15:46;7.00;99.90
35796;DHT22;21916;52.428;13.302;2022-11-30T10:24:34;7.30;99.90
35796;DHT22;21916;52.428;13.302;2022-11-30T10:27:17;7.50;99.90
35796;DHT22;21916;52.428;13.302;2022-11-30T10:29:50;7.50;99.90
35796;DHT22;21916;52.428;13.302;2022-11-30T10:32:19;7.50;99.90
35796;DHT22;21916;52.428;13.302;2022-11-30T10:34:50;7.50;99.90
35796;DHT22;21916;52.428;13.302;2022-11-30T10:37:33;7.60;99.90
35796;DHT22;21916;52.428;13.302;2022-11-30T10:40:08;7.60;99.90
35796;DHT22;21916;52.428;13.302;2022-11-30T10:42:45;7.50;99.90
35796;DHT22;21916;52.428;13.302;2022-11-30T10:45:22;7.60;99.90
35796;DHT22;21916;52.428;13.302;2022-11-30T10:48:02;7.70;99.90
35796;DHT22;21916;52.428;13.302;2022-11-30T10:50:30;7.70;99.90
35796;DHT22;21916;52.428;13.302;2022-11-30T10:52:58;7.70;99.90
35796;DHT22;21916;52.428;13.302;2022-11-30T10:55:44;7.70;99.90
35796;DHT22;21916;52.428;13.302;2022-11-30T10:58:20;7.60;99.90
35796;DHT22;21916;52.428;13.302;2022-11-30T11:01:07;7.70;99.90
35796;DHT22;21916;52.428;13.302;2022-11-30T11:03:34;7.80;99.90
35796;DHT22;21916;52.428;13.302;2022-11-30T11:06:22;7.70;99.90
35796;DHT22;21916;52.428;13.302;2022-11-30T11:08:49;7.80;99.90
35796;DHT22;21916;52.428;13.302;2022-11-30T11:11:32;7.70;99.90
35796;DHT22;21916;52.428;13.302;2022-11-30T11:14:21;7.70;99.90
35796;DHT22;21916;52.428;13.302;2022-11-30T11:19:43;7.90;99.90
35796;DHT22;21916;52.428;13.302;2022-11-30T11:22:23;7.90;99.90
35796;DHT22;21916;52.428;13.302;2022-11-30T11:25:18;8.00;99.90
35796;DHT22;21916;52.428;13.302;2022-11-30T11:27:54;8.10;99.90
35796;DHT22;21916;52.428;13.302;2022-11-30T11:30:27;8.20;99.90
35796;DHT22;21916;52.428;13.302;2022-11-30T11:35:43;8.10;99.90
35796;DHT22;21916;52.428;13.302;2022-11-30T11:43:21;8.30;99.90
35796;DHT22;21916;52.428;13.302;2022-11-30T11:45:53;8.40;99.90
35796;DHT22;21916;52.428;13.302;2022-11-30T11:48:40;8.40;99.90
35796;DHT22;21916;52.428;13.302;2022-11-30T11:51:10;8.50;99.90
35796;DHT22;21916;52.428;13.302;2022-11-30T11:58:59;8.60;99.90
35796;DHT22;21916;52.428;13.302;2022-11-30T12:06:39;8.60;99.90
35796;DHT22;21916;52.428;13.302;2022-11-30T12:09:14;8.60;99.90
35796;DHT22;21916;52.428;13.302;2022-11-30T12:11:46;8.60;99.90
35796;DHT22;21916;52.428;13.302;2022-11-30T12:14:17;8.50;99.90
35796;DHT22;21916;52.428;13.302;2022-11-30T12:30:12;8.40;99.90
35796;DHT22;21916;52.428;13.302;2022-11-30T12:38:38;8.40;99.90
35796;DHT22;21916;52.428;13.302;2022-11-30T12:46:55;8.50;99.90
35796;DHT22;21916;52.428;13.302;2022-11-30T12:54:38;8.50;99.90
35796;DHT22;21916;52.428;13.302;2022-11-30T13:00:22;8.50;99.90
35796;DHT22;21916;52.428;13.302;2022-11-30T13:05:30;8.60;99.90
35796;DHT22;21916;52.428;13.302;2022-11-30T13:08:11;8.80;99.90
35796;DHT22;21916;52.428;13.302;2022-11-30T13:10:42;8.90;99.90
35796;DHT22;21916;52.428;13.302;2022-11-30T13:13:15;9.10;99.90
35796;DHT22;21916;52.428;13.302;2022-11-30T13:15:43;9.10;99.90
35796;DHT22;21916;52.428;13.302;2022-11-30T13:18:17;8.80;99.90
35796;DHT22;21916;52.428;13.302;2022-11-30T13:31:37;8.80;99.90
35796;DHT22;21916;52.428;13.302;2022-11-30T13:34:09;8.90;99.90
35796;DHT22;21916;52.428;13.302;2022-11-30T13:36:46;9.00;99.90
35796;DHT22;21916;52.428;13.302;2022-11-30T13:39:28;9.10;99.90
35796;DHT22;21916;52.428;13.302;2022-11-30T13:44:33;8.90;99.90
35796;DHT22;21916;52.428;13.302;2022-11-30T13:47:29;8.80;99.90
35796;DHT22;21916;52.428;13.302;2022-11-30T13:55:57;8.60;99.90
35796;DHT22;21916;52.428;13.302;2022-11-30T13:58:24;8.20;99.90
35796;DHT22;21916;52.428;13.302;2022-11-30T14:03:30;8.00;99.90
35796;DHT22;21916;52.428;13.302;2022-11-30T14:06:04;7.90;99.90
35796;DHT22;21916;52.428;13.302;2022-11-30T14:08:33;7.70;99.90
35796;DHT22;21916;52.428;13.302;2022-11-30T14:13:47;7.40;99.90
35796;DHT22;21916;52.428;13.302;2022-11-30T14:16:23;7.10;99.90
35796;DHT22;21916;52.428;13.302;2022-11-30T14:18:50;6.70;99.90
35796;DHT22;21916;52.428;13.302;2022-11-30T14:21:31;6.50;99.90
35796;DHT22;21916;52.428;13.302;2022-11-30T14:24:05;6.20;99.90
35796;DHT22;21916;52.428;13.302;2022-11-30T14:26:43;5.90;99.90
35796;DHT22;21916;52.428;13.302;2022-11-30T14:31:55;5.60;99.90
35796;DHT22;21916;52.428;13.302;2022-11-30T14:34:29;5.40;99.90
35796;DHT22;21916;52.428;13.302;2022-11-30T14:37:04;5.20;99.90
35796;DHT22;21916;52.428;13.302;2022-11-30T14:39:36;5.00;99.90
35796;DHT22;21916;52.428;13.302;2022-11-30T14:42:03;5.00;99.90
35796;DHT22;21916;52.428;13.302;2022-11-30T14:44:35;4.80;99.90
35796;DHT22;21916;52.428;13.302;2022-11-30T14:47:31;4.70;99.90
35796;DHT22;21916;52.428;13.302;2022-11-30T14:49:59;4.70;99.90
35796;DHT22;21916;52.428;13.302;2022-11-30T14:55:43;4.40;99.90
35796;DHT22;21916;52.428;13.302;2022-11-30T15:01:12;4.20;99.90
35796;DHT22;21916;52.428;13.302;2022-11-30T15:03:40;4.10;99.90
35796;DHT22;21916;52.428;13.302;2022-11-30T15:06:06;3.90;99.90
35796;DHT22;21916;52.428;13.302;2022-11-30T15:08:42;3.80;99.90
35796;DHT22;21916;52.428;13.302;2022-11-30T15:11:12;3.70;99.90
35796;DHT22;21916;52.428;13.302;2022-11-30T15:13:48;3.70;99.90
35796;DHT22;21916;52.428;13.302;2022-11-30T15:16:19;3.50;99.90
35796;DHT22;21916;52.428;13.302;2022-11-30T15:18:47;3.50;99.90
35796;DHT22;21916;52.428;13.302;2022-11-30T15:21:18;3.50;99.90
35796;DHT22;21916;52.428;13.302;2022-11-30T15:23:45;3.50;99.90
35796;DHT22;21916;52.428;13.302;2022-11-30T15:26:57;3.60;99.90
35796;DHT22;21916;52.428;13.302;2022-11-30T15:29:46;3.60;99.90
35796;DHT22;21916;52.428;13.302;2022-11-30T15:32:17;3.60;99.90
35796;DHT22;21916;52.428;13.302;2022-11-30T15:34:49;3.40;99.90
35796;DHT22;21916;52.428;13.302;2022-11-30T15:37:17;3.50;99.90
35796;DHT22;21916;52.428;13.302;2022-11-30T15:39:53;3.50;99.90
35796;DHT22;21916;52.428;13.302;2022-11-30T15:42:31;3.50;99.90
35796;DHT22;21916;52.428;13.302;2022-11-30T15:45:27;3.40;99.90
35796;DHT22;21916;52.428;13.302;2022-11-30T15:47:54;3.40;99.90
35796;DHT22;21916;52.428;13.302;2022-11-30T16:01:09;3.20;99.90
35796;DHT22;21916;52.428;13.302;2022-11-30T16:06:22;3.00;99.90
35796;DHT22;21916;52.428;13.302;2022-11-30T16:08:51;2.90;99.90
35796;DHT22;21916;52.428;13.302;2022-11-30T16:11:18;2.90;99.90
35796;DHT22;21916;52.428;13.302;2022-11-30T16:13:45;3.00;99.90
35796;DHT22;21916;52.428;13.302;2022-11-30T16:16:25;3.00;99.90
35796;DHT22;21916;52.428;13.302;2022-11-30T16:18:52;3.10;99.90
35796;DHT22;21916;52.428;13.302;2022-11-30T16:21:19;3.10;99.90
35796;DHT22;21916;52.428;13.302;2022-11-30T16:23:46;3.00;99.90
35796;DHT22;21916;52.428;13.302;2022-11-30T16:26:15;3.10;99.90
35796;DHT22;21916;52.428;13.302;2022-11-30T16:28:41;3.10;99.90
35796;DHT22;21916;52.428;13.302;2022-11-30T16:31:14;3.10;99.90
35796;DHT22;21916;52.428;13.302;2022-11-30T16:33:40;3.10;99.90
35796;DHT22;21916;52.428;13.302;2022-11-30T16:36:08;3.00;99.90
35796;DHT22;21916;52.428;13.302;2022-11-30T16:38:37;3.00;99.90
35796;DHT22;21916;52.428;13.302;2022-11-30T16:41:18;3.00;99.90
35796;DHT22;21916;52.428;13.302;2022-11-30T16:43:49;3.10;99.90
35796;DHT22;21916;52.428;13.302;2022-11-30T16:46:18;3.10;99.90
35796;DHT22;21916;52.428;13.302;2022-11-30T16:48:45;3.10;99.90
35796;DHT22;21916;52.428;13.302;2022-11-30T16:51:30;3.10;99.90
35796;DHT22;21916;52.428;13.302;2022-11-30T16:53:57;3.10;99.90
35796;DHT22;21916;52.428;13.302;2022-11-30T16:56:23;3.00;99.90
35796;DHT22;21916;52.428;13.302;2022-11-30T16:58:50;2.90;99.90
35796;DHT22;21916;52.428;13.302;2022-11-30T17:01:51;2.90;99.90
35796;DHT22;21916;52.428;13.302;2022-11-30T17:04:25;3.00;99.90
35796;DHT22;21916;52.428;13.302;2022-11-30T17:06:52;3.00;99.90
35796;DHT22;21916;52.428;13.302;2022-11-30T17:09:19;2.90;99.90
35796;DHT22;21916;52.428;13.302;2022-11-30T17:11:46;2.90;99.90
35796;DHT22;21916;52.428;13.302;2022-11-30T17:14:13;2.90;99.90
35796;DHT22;21916;52.428;13.302;2022-11-30T17:16:39;2.80;99.90
35796;DHT22;21916;52.428;13.302;2022-11-30T17:19:05;2.80;99.90
35796;DHT22;21916;52.428;13.302;2022-11-30T17:21:37;2.90;99.90
35796;DHT22;21916;52.428;13.302;2022-11-30T17:24:04;2.90;99.90
35796;DHT22;21916;52.428;13.302;2022-11-30T17:26:31;2.90;99.90
35796;DHT22;21916;52.428;13.302;2022-11-30T17:28:57;3.00;99.90
35796;DHT22;21916;52.428;13.302;2022-11-30T17:31:22;3.00;99.90
35796;DHT22;21916;52.428;13.302;2022-11-30T17:33:48;3.00;99.90
35796;DHT22;21916;52.428;13.302;2022-11-30T17:36:15;2.90;99.90
35796;DHT22;21916;52.428;13.302;2022-11-30T17:38:41;2.90;99.90
35796;DHT22;21916;52.428;13.302;2022-11-30T17:41:12;2.90;99.90
35796;DHT22;21916;52.428;13.302;2022-11-30T17:43:38;2.80;99.90
35796;DHT22;21916;52.428;13.302;2022-11-30T17:46:05;2.80;99.90
35796;DHT22;21916;52.428;13.302;2022-11-30T17:48:32;2.80;99.90
35796;DHT22;21916;52.428;13.302;2022-11-30T17:50:58;2.80;99.90
35796;DHT22;21916;52.428;13.302;2022-11-30T17:53:24;2.90;99.90
35796;DHT22;21916;52.428;13.302;2022-11-30T17:55:50;2.90;99.90
35796;DHT22;21916;52.428;13.302;2022-11-30T17:58:25;2.90;99.90
35796;DHT22;21916;52.428;13.302;2022-11-30T18:00:51;3.00;99.90